createdAt,value
2017-12-03T00:00:27.776Z,37.83
2017-12-03T00:02:55.295Z,38.72
2017-12-03T00:05:23.599Z,66.78
2017-12-03T00:07:51.171Z,40.12
2017-12-03T00:10:19.014Z,39.13
2017-12-03T00:12:47.398Z,40.60
2017-12-03T00:15:14.982Z,42.45
2017-12-03T00:17:42.504Z,37.50
2017-12-03T00:20:10.856Z,33.13
2017-12-03T00:22:38.382Z,32.67
2017-12-03T00:25:06.050Z,44.05
2017-12-03T00:27:33.562Z,47.15
2017-12-03T00:30:01.883Z,35.13
2017-12-03T00:32:29.534Z,39.22
2017-12-03T00:34:57.106Z,35.47
2017-12-03T00:37:24.670Z,41.40
2017-12-03T00:39:52.199Z,40.72
2017-12-03T00:42:20.611Z,37.03
2017-12-03T00:44:48.172Z,36.22
2017-12-03T00:47:15.827Z,38.25
2017-12-03T00:49:43.346Z,39.22
2017-12-03T00:52:10.930Z,41.30
2017-12-03T00:54:39.312Z,32.75
2017-12-03T00:57:06.886Z,34.20
2017-12-03T00:59:34.407Z,32.55
2017-12-03T01:02:02.098Z,38.97
2017-12-03T01:04:29.664Z,33.53
2017-12-03T01:06:57.226Z,28.60
2017-12-03T01:09:24.750Z,36.72
2017-12-03T01:11:52.341Z,33.15
2017-12-03T01:14:19.854Z,33.40
2017-12-03T01:16:47.470Z,40.25
2017-12-03T01:19:15.024Z,33.40
2017-12-03T01:21:42.562Z,31.58
2017-12-03T01:24:10.838Z,37.08
2017-12-03T01:26:39.126Z,41.53
2017-12-03T01:29:07.398Z,30.42
2017-12-03T01:31:36.192Z,38.60
2017-12-03T01:34:03.744Z,31.80
2017-12-03T01:36:32.044Z,33.38
2017-12-03T01:38:59.909Z,33.65
2017-12-03T01:41:28.613Z,36.80
2017-12-03T01:43:56.162Z,34.20
2017-12-03T01:46:23.682Z,39.72
2017-12-03T01:48:51.681Z,32.33
2017-12-03T01:51:19.318Z,43.10
2017-12-03T01:53:47.980Z,33.75
2017-12-03T01:56:15.947Z,34.47
2017-12-03T01:58:43.685Z,31.37
2017-12-03T02:01:12.276Z,31.40
2017-12-03T02:03:39.950Z,34.55
2017-12-03T02:06:08.025Z,32.67
2017-12-03T02:08:36.721Z,33.72
2017-12-03T02:11:04.782Z,32.08
2017-12-03T02:13:32.387Z,37.38
2017-12-03T02:16:00.700Z,33.25
2017-12-03T02:18:28.631Z,30.42
2017-12-03T02:20:57.086Z,38.58
2017-12-03T02:23:24.617Z,31.87
2017-12-03T02:25:52.274Z,42.58
2017-12-03T02:28:19.798Z,34.08
2017-12-03T02:30:48.209Z,36.10
2017-12-03T02:33:15.767Z,40.88
2017-12-03T02:35:43.298Z,39.65
2017-12-03T02:38:10.815Z,37.75
2017-12-03T02:40:38.502Z,38.97
2017-12-03T02:43:06.157Z,43.35
2017-12-03T02:45:34.015Z,34.03
2017-12-03T02:48:01.600Z,39.92
2017-12-03T02:50:29.218Z,36.97
2017-12-03T02:52:56.760Z,34.60
2017-12-03T02:55:25.169Z,34.22
2017-12-03T02:57:52.694Z,35.90
2017-12-03T03:00:20.972Z,28.35
2017-12-03T03:02:49.280Z,31.40
2017-12-03T03:05:16.819Z,31.65
2017-12-03T03:07:44.342Z,34.78
2017-12-03T03:10:11.846Z,34.95
2017-12-03T03:12:39.376Z,37.40
2017-12-03T03:15:07.658Z,33.35
2017-12-03T03:17:35.949Z,34.47
2017-12-03T03:20:03.460Z,32.65
2017-12-03T03:22:31.078Z,34.38
2017-12-03T03:24:58.594Z,32.85
2017-12-03T03:27:26.126Z,38.28
2017-12-03T03:29:53.663Z,33.42
2017-12-03T03:32:21.202Z,30.90
2017-12-03T03:34:49.499Z,31.83
2017-12-03T03:37:17.037Z,30.60
2017-12-03T03:39:45.339Z,29.48
2017-12-03T03:42:12.900Z,25.83
2017-12-03T03:44:40.411Z,36.22
2017-12-03T03:47:07.922Z,34.65
2017-12-03T03:49:35.454Z,29.63
2017-12-03T03:52:03.755Z,29.70
2017-12-03T03:54:31.288Z,27.15
2017-12-03T03:56:59.562Z,32.67
2017-12-03T03:59:27.868Z,26.00
2017-12-03T04:01:55.422Z,28.48
2017-12-03T04:04:22.951Z,34.08
2017-12-03T04:06:50.472Z,22.80
2017-12-03T04:09:18.002Z,25.62
2017-12-03T04:11:45.562Z,26.20
2017-12-03T04:14:13.130Z,30.70
2017-12-03T04:16:40.635Z,21.15
2017-12-03T04:19:08.246Z,24.70
2017-12-03T04:21:35.771Z,27.17
2017-12-03T04:24:03.288Z,21.33
2017-12-03T04:26:30.826Z,20.37
2017-12-03T04:28:58.382Z,24.63
2017-12-03T04:31:25.908Z,21.55
2017-12-03T04:33:53.441Z,23.35
2017-12-03T04:36:20.970Z,27.10
2017-12-03T04:38:48.481Z,21.23
2017-12-03T04:41:16.094Z,22.55
2017-12-03T04:43:43.653Z,19.98
2017-12-03T04:46:11.189Z,22.27
2017-12-03T04:48:39.482Z,23.23
2017-12-03T04:51:07.019Z,22.42
2017-12-03T04:53:35.294Z,23.10
2017-12-03T04:56:03.598Z,19.83
2017-12-03T04:58:31.122Z,20.83
2017-12-03T05:00:58.638Z,18.80
2017-12-03T05:03:26.174Z,22.15
2017-12-03T05:05:53.683Z,22.62
2017-12-03T05:08:21.213Z,20.35
2017-12-03T05:10:48.726Z,17.60
2017-12-03T05:13:16.323Z,18.40
2017-12-03T05:15:43.837Z,22.70
2017-12-03T05:18:11.365Z,18.25
2017-12-03T05:20:38.873Z,19.08
2017-12-03T05:23:07.192Z,17.67
2017-12-03T05:25:34.705Z,18.52
2017-12-03T05:28:02.309Z,15.77
2017-12-03T05:30:29.842Z,19.65
2017-12-03T05:32:58.155Z,21.40
2017-12-03T05:35:28.614Z,20.58
2017-12-03T05:37:56.217Z,20.60
2017-12-03T05:40:23.750Z,21.83
2017-12-03T05:42:51.267Z,19.30
2017-12-03T05:45:18.806Z,18.85
2017-12-03T05:47:46.314Z,19.23
2017-12-03T05:50:13.858Z,27.70
2017-12-03T05:52:41.383Z,16.05
2017-12-03T05:55:08.950Z,15.75
2017-12-03T05:57:36.485Z,17.52
2017-12-03T06:00:04.779Z,12.50
2017-12-03T06:02:33.078Z,16.95
2017-12-03T06:05:00.611Z,16.27
2017-12-03T06:07:28.888Z,17.10
2017-12-03T06:09:57.173Z,15.45
2017-12-03T06:12:24.690Z,13.73
2017-12-03T06:14:52.208Z,11.93
2017-12-03T06:17:19.710Z,15.80
2017-12-03T06:19:47.250Z,19.00
2017-12-03T06:22:14.762Z,14.65
2017-12-03T06:24:43.076Z,12.02
2017-12-03T06:27:10.603Z,12.55
2017-12-03T06:29:38.877Z,13.13
2017-12-03T06:32:07.168Z,15.98
2017-12-03T06:34:35.442Z,17.08
2017-12-03T06:37:03.017Z,14.82
2017-12-03T06:39:30.623Z,16.02
2017-12-03T06:41:58.246Z,12.20
2017-12-03T06:44:25.795Z,14.43
2017-12-03T06:46:53.363Z,17.12
2017-12-03T06:49:20.876Z,16.80
2017-12-03T06:51:48.407Z,10.35
2017-12-03T06:54:15.946Z,14.65
2017-12-03T06:56:43.495Z,13.05
2017-12-03T06:59:10.999Z,41.03
2017-12-03T07:01:38.532Z,19.17
2017-12-03T07:04:06.037Z,16.02
2017-12-03T07:06:33.631Z,12.60
2017-12-03T07:09:01.200Z,13.02
2017-12-03T07:11:28.754Z,12.10
2017-12-03T07:13:56.321Z,11.75
2017-12-03T07:16:23.856Z,11.60
2017-12-03T07:18:52.135Z,12.88
2017-12-03T07:21:20.443Z,16.73
2017-12-03T07:23:47.952Z,12.25
2017-12-03T07:26:15.551Z,9.90
2017-12-03T07:28:43.076Z,9.85
2017-12-03T07:31:10.672Z,10.90
2017-12-03T07:33:38.199Z,10.82
2017-12-03T07:36:05.702Z,11.55
2017-12-03T07:38:33.227Z,10.88
2017-12-03T07:41:01.546Z,13.50
2017-12-03T07:43:29.074Z,8.60
2017-12-03T07:45:57.453Z,9.25
2017-12-03T07:48:26.168Z,9.73
2017-12-03T07:50:53.679Z,9.82
2017-12-03T07:53:21.220Z,8.52
2017-12-03T07:55:48.732Z,9.95
2017-12-03T07:58:16.355Z,11.90
2017-12-03T08:00:44.702Z,9.10
2017-12-03T08:03:12.241Z,8.88
2017-12-03T08:05:39.772Z,9.82
2017-12-03T08:08:08.051Z,11.65
2017-12-03T08:10:36.358Z,12.15
2017-12-03T08:13:03.958Z,10.63
2017-12-03T08:15:31.747Z,15.68
2017-12-03T08:17:59.987Z,33.13
2017-12-03T08:20:27.519Z,8.25
2017-12-03T08:22:55.027Z,17.37
2017-12-03T08:25:22.559Z,9.85
2017-12-03T08:27:50.093Z,13.77
2017-12-03T08:30:17.650Z,22.85
2017-12-03T08:32:46.034Z,7.60
2017-12-03T08:35:13.599Z,9.60
2017-12-03T08:37:41.106Z,9.85
2017-12-03T08:40:08.639Z,10.35
2017-12-03T08:42:36.195Z,13.38
2017-12-03T08:45:03.737Z,11.32
2017-12-03T08:47:31.310Z,12.35
2017-12-03T08:49:58.841Z,11.65
2017-12-03T08:52:27.139Z,13.43
2017-12-03T08:54:54.653Z,13.18
2017-12-03T08:57:22.268Z,10.98
2017-12-03T08:59:49.823Z,14.57
2017-12-03T09:02:17.345Z,18.42
2017-12-03T09:04:44.862Z,13.35
2017-12-03T09:07:12.412Z,17.83
2017-12-03T09:09:39.954Z,19.55
2017-12-03T09:12:07.495Z,9.15
2017-12-03T09:14:35.794Z,8.45
2017-12-03T09:17:03.325Z,10.23
2017-12-03T09:19:31.599Z,10.23
2017-12-03T09:21:59.190Z,10.57
2017-12-03T09:24:27.466Z,15.93
2017-12-03T09:26:54.998Z,10.35
2017-12-03T09:29:22.513Z,10.98
2017-12-03T09:31:50.035Z,10.13
2017-12-03T09:34:18.317Z,15.23
2017-12-03T09:36:46.678Z,11.12
2017-12-03T09:39:14.985Z,9.98
2017-12-03T09:41:42.542Z,10.52
2017-12-03T09:44:10.055Z,13.95
2017-12-03T09:46:37.585Z,11.48
2017-12-03T09:49:05.129Z,12.80
2017-12-03T09:51:32.683Z,11.73
2017-12-03T09:54:00.251Z,12.18
2017-12-03T09:56:27.761Z,9.98
2017-12-03T09:58:55.286Z,13.68
2017-12-03T10:01:22.801Z,12.43
2017-12-03T10:03:51.093Z,11.30
2017-12-03T10:06:19.374Z,11.90
2017-12-03T10:08:46.903Z,12.13
2017-12-03T10:11:14.504Z,18.00
2017-12-03T10:13:42.060Z,10.15
2017-12-03T10:16:09.647Z,11.15
2017-12-03T10:18:37.186Z,10.35
2017-12-03T10:21:04.765Z,14.38
2017-12-03T10:23:32.294Z,14.30
2017-12-03T10:25:59.895Z,10.15
2017-12-03T10:28:27.530Z,10.52
2017-12-03T10:30:55.087Z,14.13
2017-12-03T10:33:22.656Z,12.32
2017-12-03T10:35:50.224Z,14.85
2017-12-03T10:38:20.650Z,12.20
2017-12-03T10:40:48.179Z,11.80
2017-12-03T10:43:16.477Z,12.65
2017-12-03T10:45:44.041Z,12.90
2017-12-03T10:48:11.598Z,12.32
2017-12-03T10:50:39.129Z,12.35
2017-12-03T10:53:07.443Z,18.83
2017-12-03T10:55:34.978Z,14.45
2017-12-03T10:58:03.276Z,13.13
2017-12-03T11:00:30.815Z,14.30
2017-12-03T11:02:59.125Z,17.40
2017-12-03T11:05:26.692Z,12.57
2017-12-03T11:07:54.238Z,13.95
2017-12-03T11:10:21.803Z,17.75
2017-12-03T11:12:49.381Z,15.60
2017-12-03T11:15:16.958Z,17.25
2017-12-03T11:17:44.582Z,13.73
2017-12-03T11:20:12.122Z,12.32
2017-12-03T11:22:39.719Z,15.45
2017-12-03T11:25:07.248Z,14.07
2017-12-03T11:27:34.829Z,15.00
2017-12-03T11:30:02.432Z,15.43
2017-12-03T11:32:30.016Z,13.73
2017-12-03T11:34:58.315Z,15.10
2017-12-03T11:37:25.858Z,13.30
2017-12-03T11:39:54.164Z,13.48
2017-12-03T11:42:21.718Z,14.10
2017-12-03T11:44:49.228Z,16.35
2017-12-03T11:47:16.859Z,13.38
2017-12-03T11:49:44.380Z,15.18
2017-12-03T11:52:12.679Z,13.85
2017-12-03T11:54:40.371Z,25.12
2017-12-03T11:57:08.025Z,17.95
2017-12-03T11:59:35.697Z,14.25
2017-12-03T12:02:03.243Z,15.15
2017-12-03T12:04:30.798Z,15.68
2017-12-03T12:06:58.359Z,16.12
2017-12-03T12:09:25.907Z,14.02
2017-12-03T12:11:53.431Z,14.23
2017-12-03T12:14:21.031Z,15.98
2017-12-03T12:16:48.553Z,15.13
2017-12-03T12:19:16.103Z,12.75
2017-12-03T12:21:43.728Z,32.55
2017-12-03T12:24:11.276Z,30.80
2017-12-03T12:26:38.795Z,16.92
2017-12-03T12:29:06.336Z,13.73
2017-12-03T12:31:33.856Z,15.40
2017-12-03T12:34:01.402Z,28.62
2017-12-03T12:36:29.685Z,15.55
2017-12-03T12:38:57.203Z,14.43
2017-12-03T12:41:26.246Z,12.18
2017-12-03T12:43:53.766Z,14.70
2017-12-03T12:46:21.373Z,14.73
2017-12-03T12:48:48.935Z,13.75
2017-12-03T12:51:16.513Z,15.23
2017-12-03T12:53:44.051Z,13.45
2017-12-03T12:56:11.579Z,13.98
2017-12-03T12:58:39.097Z,13.55
2017-12-03T13:01:06.735Z,12.98
2017-12-03T13:03:34.256Z,22.25
2017-12-03T13:06:01.763Z,13.38
2017-12-03T13:08:29.286Z,16.50
2017-12-03T13:10:57.578Z,18.67
2017-12-03T13:13:25.862Z,13.85
2017-12-03T13:15:53.385Z,14.23
2017-12-03T13:18:22.431Z,18.98
2017-12-03T13:20:49.995Z,18.12
2017-12-03T13:23:17.512Z,17.92
2017-12-03T13:25:45.795Z,13.15
2017-12-03T13:28:14.210Z,14.48
2017-12-03T13:30:41.782Z,15.45
2017-12-03T13:33:09.318Z,15.15
2017-12-03T13:35:36.834Z,14.55
2017-12-03T13:38:04.365Z,15.77
2017-12-03T13:40:31.886Z,14.15
2017-12-03T13:43:00.183Z,16.60
2017-12-03T13:45:27.695Z,14.80
2017-12-03T13:47:55.215Z,15.32
2017-12-03T13:50:22.726Z,14.10
2017-12-03T13:52:51.025Z,15.32
2017-12-03T13:55:19.328Z,15.38
2017-12-03T13:57:46.887Z,16.23
2017-12-03T14:00:14.446Z,15.45
2017-12-03T14:02:41.970Z,11.95
2017-12-03T14:05:10.250Z,14.43
2017-12-03T14:07:38.542Z,13.35
2017-12-03T14:10:06.061Z,14.77
2017-12-03T14:12:33.617Z,13.18
2017-12-03T14:15:01.134Z,13.75
2017-12-03T14:17:28.692Z,12.90
2017-12-03T14:19:56.226Z,11.02
2017-12-03T14:22:24.587Z,14.82
2017-12-03T14:24:52.152Z,13.88
2017-12-03T14:27:19.683Z,15.38
2017-12-03T14:29:47.198Z,17.77
2017-12-03T14:32:14.743Z,13.90
2017-12-03T14:34:43.041Z,14.98
2017-12-03T14:37:10.558Z,12.30
2017-12-03T14:39:38.167Z,17.52
2017-12-03T14:42:05.690Z,14.52
2017-12-03T14:44:34.006Z,16.48
2017-12-03T14:47:01.523Z,17.37
2017-12-03T14:49:29.057Z,17.40
2017-12-03T14:51:56.587Z,15.27
2017-12-03T14:54:24.122Z,14.50
2017-12-03T14:56:52.419Z,13.90
2017-12-03T14:59:19.934Z,14.55
2017-12-03T15:01:47.533Z,16.85
2017-12-03T15:04:15.831Z,17.15
2017-12-03T15:06:43.388Z,19.50
2017-12-03T15:09:10.910Z,20.23
2017-12-03T15:11:38.498Z,22.87
2017-12-03T15:14:06.077Z,21.70
2017-12-03T15:16:33.607Z,21.25
2017-12-03T15:19:01.906Z,23.17
2017-12-03T15:21:29.430Z,20.70
2017-12-03T15:23:57.020Z,22.87
2017-12-03T15:26:24.559Z,21.33
2017-12-03T15:28:52.833Z,24.40
2017-12-03T15:31:20.431Z,24.80
2017-12-03T15:33:47.994Z,29.98
2017-12-03T15:36:15.547Z,27.65
2017-12-03T15:38:43.085Z,23.40
2017-12-03T15:41:11.478Z,24.40
2017-12-03T15:43:39.054Z,32.40
2017-12-03T15:46:06.646Z,34.85
2017-12-03T15:48:34.174Z,26.87
2017-12-03T15:51:01.736Z,29.98
2017-12-03T15:53:29.299Z,29.87
2017-12-03T15:55:56.867Z,27.65
2017-12-03T15:58:24.402Z,27.13
2017-12-03T16:00:51.925Z,24.12
2017-12-03T16:03:19.528Z,24.15
2017-12-03T16:05:47.110Z,28.87
2017-12-03T16:08:14.656Z,23.70
2017-12-03T16:10:42.225Z,26.52
2017-12-03T16:13:09.877Z,24.58
2017-12-03T16:15:37.390Z,24.92
2017-12-03T16:18:04.910Z,23.35
2017-12-03T16:20:32.466Z,24.27
2017-12-03T16:22:59.983Z,26.17
2017-12-03T16:25:27.523Z,25.67
2017-12-03T16:27:55.135Z,21.52
2017-12-03T16:30:22.670Z,19.20
2017-12-03T16:32:50.967Z,22.77
2017-12-03T16:35:18.529Z,22.83
2017-12-03T16:37:46.107Z,30.52
2017-12-03T16:40:13.640Z,23.00
2017-12-03T16:42:41.924Z,32.83
2017-12-03T16:45:10.314Z,28.52
2017-12-03T16:47:37.831Z,24.95
2017-12-03T16:50:05.433Z,25.00
2017-12-03T16:52:33.008Z,22.35
2017-12-03T16:55:01.066Z,20.15
2017-12-03T16:57:28.591Z,23.08
2017-12-03T16:59:56.203Z,21.58
2017-12-03T17:02:23.718Z,25.27
2017-12-03T17:04:51.310Z,23.25
2017-12-03T17:07:18.882Z,24.00
2017-12-03T17:09:46.435Z,21.85
2017-12-03T17:12:13.938Z,20.58
2017-12-03T17:14:41.450Z,19.62
2017-12-03T17:17:08.986Z,23.08
2017-12-03T17:19:37.296Z,21.58
2017-12-03T17:22:04.897Z,25.62
2017-12-03T17:24:32.440Z,28.95
2017-12-03T17:26:59.972Z,26.62
2017-12-03T17:29:27.514Z,23.50
2017-12-03T17:31:55.919Z,24.67
2017-12-03T17:34:23.487Z,26.10
2017-12-03T17:36:51.023Z,22.87
2017-12-03T17:39:18.538Z,26.60
2017-12-03T17:41:46.177Z,29.87
2017-12-03T17:44:13.799Z,28.67
2017-12-03T17:46:42.195Z,29.33
2017-12-03T17:49:10.582Z,28.45
2017-12-03T17:51:38.907Z,29.35
2017-12-03T17:54:06.550Z,22.75
2017-12-03T17:56:34.106Z,24.27
2017-12-03T17:59:01.621Z,34.92
2017-12-03T18:01:29.947Z,29.80
2017-12-03T18:03:57.499Z,32.13
2017-12-03T18:06:25.069Z,25.25
2017-12-03T18:08:52.588Z,30.02
2017-12-03T18:11:20.143Z,31.42
2017-12-03T18:13:47.727Z,32.05
2017-12-03T18:16:16.038Z,29.80
2017-12-03T18:18:43.567Z,31.27
2017-12-03T18:21:11.081Z,32.10
2017-12-03T18:23:38.617Z,35.75
2017-12-03T18:26:06.246Z,33.72
2017-12-03T18:28:33.807Z,32.53
2017-12-03T18:31:01.349Z,31.10
2017-12-03T18:33:28.931Z,30.02
2017-12-03T18:35:56.507Z,34.33
2017-12-03T18:38:24.066Z,43.10
2017-12-03T18:40:51.601Z,44.72
2017-12-03T18:43:19.177Z,35.80
2017-12-03T18:45:46.739Z,30.20
2017-12-03T18:48:14.245Z,27.83
2017-12-03T18:50:43.274Z,33.50
2017-12-03T18:53:10.790Z,32.55
2017-12-03T18:55:38.440Z,38.70
2017-12-03T18:58:05.958Z,40.10
2017-12-03T19:00:33.498Z,42.13
2017-12-03T19:03:01.774Z,39.50
2017-12-03T19:05:31.610Z,28.02
2017-12-03T19:07:59.176Z,40.97
2017-12-03T19:10:26.735Z,29.55
2017-12-03T19:12:54.298Z,29.42
2017-12-03T19:15:21.856Z,35.10
2017-12-03T19:17:49.533Z,37.72
2017-12-03T19:20:17.074Z,37.17
2017-12-03T19:22:44.597Z,36.03
2017-12-03T19:25:12.137Z,40.72
2017-12-03T19:27:39.771Z,33.40
2017-12-03T19:30:07.333Z,40.53
2017-12-03T19:32:34.906Z,36.05
2017-12-03T19:35:02.542Z,37.55
2017-12-03T19:37:30.124Z,34.45
2017-12-03T19:39:57.653Z,42.05
2017-12-03T19:42:25.236Z,41.00
2017-12-03T19:44:52.758Z,41.58
2017-12-03T19:47:21.066Z,46.47
2017-12-03T19:49:48.583Z,36.00
2017-12-03T19:52:16.123Z,34.70
2017-12-03T19:54:43.645Z,38.72
2017-12-03T19:57:11.188Z,35.35
2017-12-03T19:59:39.476Z,28.50
2017-12-03T20:02:07.043Z,32.20
2017-12-03T20:04:34.607Z,30.80
2017-12-03T20:07:02.181Z,29.08
2017-12-03T20:09:29.697Z,31.77
2017-12-03T20:11:58.008Z,32.95
2017-12-03T20:14:25.531Z,34.70
2017-12-03T20:16:53.843Z,34.90
2017-12-03T20:19:21.442Z,32.80
2017-12-03T20:21:49.067Z,38.25
2017-12-03T20:24:16.586Z,38.60
2017-12-03T20:26:44.907Z,40.58
2017-12-03T20:29:12.439Z,33.63
2017-12-03T20:31:40.733Z,36.88
2017-12-03T20:34:08.246Z,42.50
2017-12-03T20:36:35.868Z,50.00
2017-12-03T20:39:03.443Z,39.00
2017-12-03T20:41:31.018Z,38.55
2017-12-03T20:43:58.531Z,48.42
2017-12-03T20:46:26.061Z,36.45
2017-12-03T20:48:55.088Z,36.28
2017-12-03T20:51:22.662Z,38.80
2017-12-03T20:53:50.335Z,39.60
2017-12-03T20:56:17.879Z,32.95
2017-12-03T20:58:45.546Z,37.88
2017-12-03T21:01:13.062Z,42.10
2017-12-03T21:03:40.595Z,39.28
2017-12-03T21:06:08.130Z,35.13
2017-12-03T21:08:35.689Z,46.80
2017-12-03T21:11:03.253Z,42.28
2017-12-03T21:13:30.908Z,40.25
2017-12-03T21:15:58.427Z,43.30
2017-12-03T21:18:26.044Z,32.30
2017-12-03T21:20:53.594Z,51.45
2017-12-03T21:23:21.121Z,41.67
2017-12-03T21:25:49.422Z,46.25
2017-12-03T21:28:17.106Z,48.83
2017-12-03T21:30:44.694Z,36.97
2017-12-03T21:33:12.238Z,38.85
2017-12-03T21:35:39.771Z,40.95
2017-12-03T21:38:07.368Z,35.30
2017-12-03T21:40:34.891Z,37.75
2017-12-03T21:43:03.194Z,34.80
2017-12-03T21:45:30.724Z,45.03
2017-12-03T21:47:58.263Z,42.78
2017-12-03T21:50:26.556Z,38.75
2017-12-03T21:52:54.955Z,36.58
2017-12-03T21:55:22.623Z,33.88
2017-12-03T21:57:50.188Z,50.17
2017-12-03T22:00:17.698Z,35.75
2017-12-03T22:02:45.319Z,39.35
2017-12-03T22:05:12.839Z,33.30
2017-12-03T22:07:41.126Z,38.10
2017-12-03T22:10:08.638Z,34.10
2017-12-03T22:12:36.167Z,41.63
2017-12-03T22:15:03.697Z,36.30
2017-12-03T22:17:31.334Z,48.38
2017-12-03T22:19:59.615Z,40.47
2017-12-03T22:22:27.232Z,47.13
2017-12-03T22:24:54.776Z,40.25
2017-12-03T22:27:22.292Z,41.05
2017-12-03T22:29:49.830Z,51.42
2017-12-03T22:32:17.370Z,43.47
2017-12-03T22:34:44.914Z,38.40
2017-12-03T22:37:12.483Z,38.87
2017-12-03T22:39:40.037Z,40.47
2017-12-03T22:42:07.607Z,44.03
2017-12-03T22:44:35.147Z,44.20
2017-12-03T22:47:02.670Z,37.65
2017-12-03T22:49:30.293Z,41.10
2017-12-03T22:51:57.819Z,42.38
2017-12-03T22:54:26.128Z,43.63
2017-12-03T22:56:53.683Z,31.95
2017-12-03T22:59:21.234Z,36.22
2017-12-03T23:01:48.747Z,40.23
2017-12-03T23:04:16.278Z,37.08
2017-12-03T23:06:43.795Z,33.92
2017-12-03T23:09:12.093Z,37.90
2017-12-03T23:11:39.606Z,35.72
2017-12-03T23:14:08.654Z,47.80
2017-12-03T23:16:36.197Z,40.75
2017-12-03T23:19:04.473Z,34.20
2017-12-03T23:21:32.770Z,33.67
2017-12-03T23:24:00.283Z,32.33
2017-12-03T23:26:27.801Z,41.53
2017-12-03T23:28:55.308Z,34.23
2017-12-03T23:31:22.910Z,36.45
2017-12-03T23:33:50.451Z,30.10
2017-12-03T23:36:18.747Z,35.22
2017-12-03T23:38:46.263Z,36.50
2017-12-03T23:41:13.802Z,33.40
2017-12-03T23:43:41.326Z,28.20
2017-12-03T23:46:08.858Z,32.97
2017-12-03T23:48:37.172Z,39.20
2017-12-03T23:51:04.745Z,28.73
2017-12-03T23:53:32.245Z,36.43
2017-12-03T23:56:00.549Z,35.28
2017-12-03T23:58:28.081Z,32.30
